Time;durP1;ratioP1;P1;durP2;ratioP2;P2;SDS_P1;SDS_P2;PMS_P1;PMS_P2;Temp;Humidity;BMP_temperature;BMP_pressure;BME280_temperature;BME280_humidity;BME280_pressure;Samples;Min_cycle;Max_cycle;Signal;HPM_P1;HPM_P2
2021/03/10 00:00:12;;;;;;;55.70;23.92;;;;;;;-142.13;100.00;58370.81;4978185;28;20836;-72
2021/03/10 00:02:44;;;;;;;57.65;24.45;;;;;;;-142.13;100.00;58370.81;4965645;28;741476;-71
2021/03/10 00:05:12;;;;;;;60.42;24.73;;;;;;;-142.13;100.00;58370.81;4966689;28;20515;-71
2021/03/10 00:07:39;;;;;;;48.65;23.85;;;;;;;-142.13;100.00;58370.81;4994370;28;20368;-71
2021/03/10 00:10:09;;;;;;;55.33;24.00;;;;;;;-142.13;100.00;58370.81;4986772;28;20648;-70
2021/03/10 00:12:36;;;;;;;48.40;22.75;;;;;;;-142.13;100.00;58370.81;4982238;28;20538;-70
2021/03/10 00:15:05;;;;;;;51.33;23.50;;;;;;;-142.13;100.00;58370.81;4998097;28;20191;-71
2021/03/10 00:17:32;;;;;;;52.75;22.95;;;;;;;-142.13;100.00;58370.81;4990007;28;20718;-71
2021/03/10 00:20:00;;;;;;;47.85;20.83;;;;;;;-142.13;100.00;58370.81;4998316;28;20659;-70
2021/03/10 00:22:28;;;;;;;46.53;21.05;;;;;;;-142.13;100.00;58370.81;4992541;28;20772;-71
2021/03/10 00:25:01;;;;;;;50.50;22.63;;;;;;;-142.13;100.00;58370.81;4988143;28;20668;-71
2021/03/10 00:27:28;;;;;;;46.60;21.73;;;;;;;-142.13;100.00;58370.81;4978926;28;20223;-71
2021/03/10 00:29:57;;;;;;;54.65;21.77;;;;;;;-142.13;100.00;58370.81;4981021;28;20592;-71
2021/03/10 00:32:26;;;;;;;45.25;21.17;;;;;;;-142.13;100.00;58370.81;4989790;28;20279;-71
2021/03/10 00:34:54;;;;;;;55.05;21.30;;;;;;;-142.13;100.00;58370.81;4987527;28;20200;-72
2021/03/10 00:37:22;;;;;;;62.08;23.52;;;;;;;-142.13;100.00;58370.81;4986313;28;20225;-71
2021/03/10 00:39:50;;;;;;;47.65;21.92;;;;;;;-142.13;100.00;58370.81;4966747;28;20747;-71
2021/03/10 00:42:17;;;;;;;52.65;23.80;;;;;;;-142.13;100.00;58370.81;4984710;28;20957;-70
2021/03/10 00:44:44;;;;;;;56.42;24.42;;;;;;;-142.13;100.00;58370.81;4980948;28;20537;-70
2021/03/10 00:47:11;;;;;;;51.10;22.80;;;;;;;-142.13;100.00;58370.81;4984893;28;20217;-71
2021/03/10 00:49:39;;;;;;;50.38;22.58;;;;;;;-142.13;100.00;58370.81;4981303;28;20685;-71
2021/03/10 00:52:07;;;;;;;51.20;23.48;;;;;;;-142.13;100.00;58370.81;4979285;28;20252;-70
2021/03/10 00:54:35;;;;;;;48.95;21.20;;;;;;;-142.13;100.00;58370.81;4980583;28;20627;-70
2021/03/10 00:57:03;;;;;;;50.15;23.33;;;;;;;-142.13;100.00;58370.81;4989355;28;21075;-69
2021/03/10 00:59:31;;;;;;;57.45;24.77;;;;;;;-142.13;100.00;58370.81;4985952;28;20703;-70
2021/03/10 01:01:58;;;;;;;67.93;22.52;;;;;;;-142.13;100.00;58370.81;4988762;28;20226;-71
2021/03/10 01:04:26;;;;;;;46.05;21.92;;;;;;;-142.13;100.00;58370.81;4980889;28;20665;-72
2021/03/10 01:06:53;;;;;;;52.15;23.70;;;;;;;-142.13;100.00;58370.81;4989011;28;20213;-72
2021/03/10 01:09:20;;;;;;;49.90;21.77;;;;;;;-142.13;100.00;58370.81;4969102;28;20182;-72
2021/03/10 01:11:48;;;;;;;52.05;22.63;;;;;;;-142.13;100.00;58370.81;4986123;28;20549;-72
2021/03/10 01:14:15;;;;;;;51.30;22.52;;;;;;;-142.13;100.00;58370.81;4989274;28;20220;-72
2021/03/10 01:16:42;;;;;;;54.20;23.75;;;;;;;-142.13;100.00;58370.81;4991760;28;20201;-69
2021/03/10 01:19:10;;;;;;;55.67;24.25;;;;;;;-142.13;100.00;58370.81;4979622;28;20210;-69
2021/03/10 01:21:37;;;;;;;52.00;24.90;;;;;;;-142.13;100.00;58370.81;4979258;28;20389;-69
2021/03/10 01:24:06;;;;;;;50.78;22.15;;;;;;;-142.13;100.00;58370.81;4987458;28;20636;-70
2021/03/10 01:26:35;;;;;;;44.20;21.98;;;;;;;-142.13;100.00;58370.81;4994445;28;20193;-69
2021/03/10 01:29:03;;;;;;;53.38;24.60;;;;;;;-142.13;100.00;58370.81;4984654;28;20268;-70
2021/03/10 01:31:30;;;;;;;52.72;22.25;;;;;;;-142.13;100.00;58370.81;4975246;28;20670;-69
2021/03/10 01:33:57;;;;;;;53.33;23.48;;;;;;;-142.13;100.00;58370.81;4980419;28;20719;-69
2021/03/10 01:36:27;;;;;;;43.50;21.55;;;;;;;-142.13;100.00;58370.81;4984716;28;20193;-70
2021/03/10 01:38:54;;;;;;;48.92;23.00;;;;;;;-142.13;100.00;58370.81;4979176;28;20229;-69
2021/03/10 01:41:21;;;;;;;53.85;24.52;;;;;;;-142.13;100.00;58370.81;4976802;28;20559;-69
2021/03/10 01:43:48;;;;;;;50.05;22.40;;;;;;;-142.13;100.00;58370.81;4982904;28;20313;-69
2021/03/10 01:46:16;;;;;;;48.78;22.70;;;;;;;-142.13;100.00;58370.81;4991383;28;20189;-72
2021/03/10 01:48:44;;;;;;;60.33;22.80;;;;;;;-142.13;100.00;58370.81;4988680;28;20639;-71
2021/03/10 01:51:11;;;;;;;56.60;23.42;;;;;;;-142.13;100.00;58370.81;4979429;28;20583;-71
2021/03/10 01:53:38;;;;;;;62.90;24.98;;;;;;;-142.13;100.00;58370.81;4983158;28;20370;-71
2021/03/10 01:56:05;;;;;;;49.08;22.50;;;;;;;-142.13;100.00;58370.81;4979822;28;20959;-71
2021/03/10 01:58:32;;;;;;;56.80;25.67;;;;;;;-142.13;100.00;58370.81;4987245;28;20965;-71
2021/03/10 02:00:59;;;;;;;47.63;22.50;;;;;;;-142.13;100.00;58370.81;4991759;28;20205;-71
2021/03/10 02:03:28;;;;;;;52.10;23.98;;;;;;;-142.13;100.00;58370.81;4985955;28;20796;-71
2021/03/10 02:05:55;;;;;;;59.72;25.20;;;;;;;-142.13;100.00;58370.81;4973306;28;20541;-71
2021/03/10 02:08:34;;;;;;;51.08;22.52;;;;;;;-142.13;100.00;58370.81;4977911;28;20225;-71
2021/03/10 02:11:22;;;;;;;49.90;23.55;;;;;;;-142.13;100.00;58370.81;4984631;28;20228;-70
2021/03/10 02:13:59;;;;;;;53.17;22.77;;;;;;;-142.13;100.00;58370.81;4985282;28;20286;-71
2021/03/10 02:16:33;;;;;;;56.08;24.63;;;;;;;-142.13;100.00;58370.81;4983904;28;20255;-74
2021/03/10 02:19:06;;;;;;;51.00;23.42;;;;;;;-142.13;100.00;58370.81;4987265;28;20717;-71
2021/03/10 02:21:51;;;;;;;52.38;24.13;;;;;;;-142.13;100.00;58370.81;4988859;28;20751;-71
2021/03/10 02:24:33;;;;;;;55.70;23.90;;;;;;;-142.13;100.00;58370.81;4978642;28;20647;-70
2021/03/10 02:27:31;;;;;;;57.05;25.52;;;;;;;-142.13;100.00;58370.81;4991984;28;20234;-70
2021/03/10 02:30:04;;;;;;;50.33;23.25;;;;;;;-142.13;100.00;58370.81;4967321;28;20695;-70
2021/03/10 02:32:32;;;;;;;54.80;24.40;;;;;;;-142.13;100.00;58370.81;4992257;28;20667;-70
2021/03/10 02:35:02;;;;;;;52.55;24.08;;;;;;;-142.13;100.00;58370.81;4978486;28;20256;-70
2021/03/10 02:37:30;;;;;;;58.22;25.00;;;;;;;-142.13;100.00;58370.81;4977136;28;20700;-71
2021/03/10 02:39:59;;;;;;;53.85;23.98;;;;;;;-142.13;100.00;58370.81;4978560;28;20204;-70
2021/03/10 02:42:27;;;;;;;45.30;23.48;;;;;;;-142.13;100.00;58370.81;4977761;28;20575;-70
2021/03/10 02:44:56;;;;;;;49.85;23.38;;;;;;;-142.13;100.00;58370.81;4970968;28;20720;-70
2021/03/10 02:47:25;;;;;;;50.22;25.02;;;;;;;-142.13;100.00;58370.81;4978742;28;20798;-70
2021/03/10 02:49:53;;;;;;;50.83;23.05;;;;;;;-142.13;100.00;58370.81;4990686;28;20564;-70
2021/03/10 02:52:22;;;;;;;54.92;24.55;;;;;;;-142.13;100.00;58370.81;4987200;28;20220;-70
2021/03/10 02:54:51;;;;;;;52.80;23.85;;;;;;;-142.13;100.00;58370.81;4984492;28;20244;-71
2021/03/10 02:57:18;;;;;;;56.15;23.83;;;;;;;-142.13;100.00;58370.81;4978584;28;20220;-70
2021/03/10 02:59:50;;;;;;;55.00;25.45;;;;;;;-142.13;100.00;58370.81;4980040;28;20635;-70
2021/03/10 03:02:17;;;;;;;65.82;27.30;;;;;;;-142.13;100.00;58370.81;4986931;28;20269;-70
2021/03/10 03:04:45;;;;;;;51.15;23.70;;;;;;;-142.13;100.00;58370.81;4972574;28;20231;-71
2021/03/10 03:07:19;;;;;;;49.25;24.13;;;;;;;-142.13;100.00;58370.81;4975634;28;20216;-70
2021/03/10 03:09:47;;;;;;;57.53;25.58;;;;;;;-142.13;100.00;58370.81;4981826;28;20212;-70
2021/03/10 03:12:15;;;;;;;56.45;24.83;;;;;;;-142.13;100.00;58370.81;4976737;28;20215;-70
2021/03/10 03:14:43;;;;;;;58.05;25.77;;;;;;;-142.13;100.00;58370.81;4982542;28;20242;-70
2021/03/10 03:17:11;;;;;;;58.33;26.27;;;;;;;-142.13;100.00;58370.81;4980865;28;20225;-70
2021/03/10 03:19:39;;;;;;;52.75;26.10;;;;;;;-142.13;100.00;58370.81;4989875;28;20632;-73
2021/03/10 03:22:07;;;;;;;59.45;24.70;;;;;;;-142.13;100.00;58370.81;4976358;28;20703;-71
2021/03/10 03:24:35;;;;;;;57.50;24.95;;;;;;;-142.13;100.00;58370.81;4981509;28;20202;-70
2021/03/10 03:27:03;;;;;;;63.28;27.25;;;;;;;-142.13;100.00;58370.81;4972689;28;20569;-71
2021/03/10 03:29:32;;;;;;;51.65;24.30;;;;;;;-142.13;100.00;58370.81;4987262;28;20614;-70
2021/03/10 03:32:00;;;;;;;61.78;23.50;;;;;;;-142.13;100.00;58370.81;4990125;28;20609;-70
2021/03/10 03:34:28;;;;;;;60.70;26.33;;;;;;;-142.13;100.00;58370.81;4973731;28;20213;-70
2021/03/10 03:36:55;;;;;;;59.20;23.38;;;;;;;-142.13;100.00;58370.81;4977221;28;20225;-70
2021/03/10 03:39:23;;;;;;;58.75;24.50;;;;;;;-142.13;100.00;58370.81;4992128;28;20634;-71
2021/03/10 03:41:52;;;;;;;54.65;22.95;;;;;;;-142.13;100.00;58370.81;4990677;28;20236;-71
2021/03/10 03:44:19;;;;;;;62.47;27.85;;;;;;;-142.13;100.00;58370.81;4976524;28;20508;-70
2021/03/10 03:46:46;;;;;;;61.90;26.30;;;;;;;-142.13;100.00;58370.81;4987066;28;20218;-71
2021/03/10 03:49:14;;;;;;;68.45;26.50;;;;;;;-142.13;100.00;58370.81;4988086;28;20185;-70
2021/03/10 03:51:42;;;;;;;62.30;27.92;;;;;;;-142.13;100.00;58370.81;4982833;28;20701;-71
2021/03/10 03:54:09;;;;;;;56.25;24.30;;;;;;;-142.13;100.00;58370.81;4981622;28;20195;-71
2021/03/10 03:56:37;;;;;;;59.10;25.77;;;;;;;-142.13;100.00;58370.81;4980582;28;20733;-70
2021/03/10 03:59:05;;;;;;;60.33;27.50;;;;;;;-142.13;100.00;58370.81;4982285;28;20528;-71
2021/03/10 04:01:32;;;;;;;68.80;28.10;;;;;;;-142.13;100.00;58370.81;4980040;28;20204;-72
2021/03/10 04:03:59;;;;;;;50.63;24.23;;;;;;;-142.13;100.00;58370.81;4987035;28;20719;-70
2021/03/10 04:06:26;;;;;;;51.30;24.67;;;;;;;-142.13;100.00;58370.81;4981573;28;20635;-71
2021/03/10 04:08:53;;;;;;;54.10;25.20;;;;;;;-142.13;100.00;58370.81;4988456;28;20686;-71
2021/03/10 04:11:20;;;;;;;52.33;23.30;;;;;;;-142.13;100.00;58370.81;4977095;28;20520;-69
2021/03/10 04:13:49;;;;;;;55.00;24.48;;;;;;;-142.13;100.00;58370.81;4979532;28;20223;-71
2021/03/10 04:16:17;;;;;;;56.78;24.80;;;;;;;-142.13;100.00;58370.81;4995670;28;20181;-72
2021/03/10 04:18:44;;;;;;;59.80;26.60;;;;;;;-142.13;100.00;58370.81;4981132;28;20312;-70
2021/03/10 04:21:11;;;;;;;56.83;25.20;;;;;;;-142.13;100.00;58370.81;4982115;28;20734;-72
2021/03/10 04:23:38;;;;;;;62.70;27.73;;;;;;;-142.13;100.00;58370.81;4981772;28;20227;-72
2021/03/10 04:26:05;;;;;;;59.13;28.05;;;;;;;-142.13;100.00;58370.81;4983041;28;20194;-69
2021/03/10 04:28:31;;;;;;;55.83;23.50;;;;;;;-142.13;100.00;58370.81;4989745;28;20578;-70
2021/03/10 04:31:00;;;;;;;50.42;24.48;;;;;;;-142.13;100.00;58370.81;4992775;28;20589;-70
2021/03/10 04:33:27;;;;;;;57.78;26.38;;;;;;;-142.13;100.00;58370.81;4981511;28;20712;-70
2021/03/10 04:35:54;;;;;;;65.75;27.40;;;;;;;-142.13;100.00;58370.81;4981053;28;20708;-69
2021/03/10 04:38:28;;;;;;;54.85;26.60;;;;;;;-142.13;100.00;58370.81;4991423;28;20600;-69
2021/03/10 04:40:55;;;;;;;54.85;25.45;;;;;;;-142.13;100.00;58370.81;4993689;28;20907;-69
2021/03/10 04:43:22;;;;;;;52.45;23.92;;;;;;;-142.13;100.00;58370.81;4979001;28;20205;-69
2021/03/10 04:45:49;;;;;;;54.28;27.30;;;;;;;-142.13;100.00;58370.81;4993679;28;20831;-71
2021/03/10 04:48:21;;;;;;;54.20;26.65;;;;;;;-142.13;100.00;58370.81;4979057;28;20292;-71
2021/03/10 04:50:49;;;;;;;60.33;26.77;;;;;;;-142.13;100.00;58370.81;4979444;28;20640;-70
2021/03/10 04:53:16;;;;;;;62.45;25.20;;;;;;;-142.13;100.00;58370.81;4983116;28;20217;-69
2021/03/10 04:55:43;;;;;;;56.85;25.48;;;;;;;-142.13;100.00;58370.81;4980345;28;20662;-69
2021/03/10 04:58:10;;;;;;;61.05;27.35;;;;;;;-142.13;100.00;58370.81;4984090;28;20939;-69
2021/03/10 05:00:38;;;;;;;67.20;27.75;;;;;;;-142.13;100.00;58370.81;4978976;28;20543;-70
2021/03/10 05:03:05;;;;;;;63.53;26.70;;;;;;;-142.13;100.00;58370.81;4986518;28;20340;-70
2021/03/10 05:05:32;;;;;;;68.40;27.85;;;;;;;-142.13;100.00;58370.81;4985488;28;20251;-70
2021/03/10 05:07:59;;;;;;;59.38;26.25;;;;;;;-142.13;100.00;58370.81;4989729;28;20717;-69
2021/03/10 05:10:26;;;;;;;55.58;24.30;;;;;;;-142.13;100.00;58370.81;4978839;28;20195;-69
2021/03/10 05:12:53;;;;;;;60.40;25.35;;;;;;;-142.13;100.00;58370.81;4983666;28;20956;-69
2021/03/10 05:15:20;;;;;;;62.00;25.80;;;;;;;-142.13;100.00;58370.81;4983883;28;20629;-69
2021/03/10 05:17:47;;;;;;;60.72;26.10;;;;;;;-142.13;100.00;58370.81;4982954;28;20276;-70
2021/03/10 05:20:14;;;;;;;53.55;24.95;;;;;;;-142.13;100.00;58370.81;4974616;28;20296;-69
2021/03/10 05:22:42;;;;;;;64.10;26.40;;;;;;;-142.13;100.00;58370.81;4979184;28;20844;-70
2021/03/10 05:25:11;;;;;;;59.40;24.77;;;;;;;-142.13;100.00;58370.81;4980629;28;20217;-69
2021/03/10 05:27:38;;;;;;;56.53;26.00;;;;;;;-142.13;100.00;58370.81;4981486;28;20222;-72
2021/03/10 05:30:08;;;;;;;60.22;26.75;;;;;;;-142.13;100.00;58370.81;4979644;28;20581;-71
2021/03/10 05:32:36;;;;;;;60.88;26.33;;;;;;;-142.13;100.00;58370.81;4982288;28;20227;-70
2021/03/10 05:35:04;;;;;;;54.78;25.33;;;;;;;-142.13;100.00;58370.81;4984747;28;20204;-70
2021/03/10 05:37:31;;;;;;;51.45;24.27;;;;;;;-142.13;100.00;58370.81;4978804;28;20244;-70
2021/03/10 05:39:59;;;;;;;55.42;26.08;;;;;;;-142.13;100.00;58370.81;4975661;28;20636;-71
2021/03/10 05:42:26;;;;;;;56.25;24.23;;;;;;;-142.13;100.00;58370.81;4969751;28;20221;-70
2021/03/10 05:44:52;;;;;;;56.72;25.15;;;;;;;-142.13;100.00;58370.81;4993195;28;20264;-71
2021/03/10 05:47:20;;;;;;;62.55;26.48;;;;;;;-142.13;100.00;58370.81;4984596;28;20656;-70
2021/03/10 05:49:48;;;;;;;50.38;24.50;;;;;;;-142.13;100.00;58370.81;4976360;28;20294;-69
2021/03/10 05:52:17;;;;;;;60.85;26.10;;;;;;;-142.13;100.00;58370.81;4988682;28;20301;-70
2021/03/10 05:54:44;;;;;;;62.58;26.65;;;;;;;-142.13;100.00;58370.81;4980355;28;20324;-71
2021/03/10 05:57:12;;;;;;;63.92;25.02;;;;;;;-142.13;100.00;58370.81;4983487;28;20603;-70
2021/03/10 05:59:39;;;;;;;64.40;24.95;;;;;;;-142.13;100.00;58370.81;4982648;28;20186;-69
2021/03/10 06:02:09;;;;;;;59.25;25.30;;;;;;;-142.13;100.00;58370.81;4975089;28;20226;-69
2021/03/10 06:04:38;;;;;;;58.88;24.88;;;;;;;-142.13;100.00;58370.81;4992612;28;20628;-69
2021/03/10 06:07:06;;;;;;;62.40;28.63;;;;;;;-142.13;100.00;58370.81;4989581;28;20882;-69
2021/03/10 06:09:38;;;;;;;56.38;27.40;;;;;;;-142.13;100.00;58370.81;4982326;28;20478;-69
2021/03/10 06:12:06;;;;;;;69.38;27.65;;;;;;;-142.13;100.00;58370.81;4990271;28;20665;-70
2021/03/10 06:14:34;;;;;;;59.50;26.40;;;;;;;-142.13;100.00;58370.81;4982382;28;20509;-69
2021/03/10 06:17:02;;;;;;;57.85;26.92;;;;;;;-142.13;100.00;58370.81;4985854;28;20227;-70
2021/03/10 06:19:29;;;;;;;55.42;24.70;;;;;;;-142.13;100.00;58370.81;4992998;28;20271;-69
2021/03/10 06:21:56;;;;;;;71.53;27.95;;;;;;;-142.13;100.00;58370.81;4982776;28;20838;-69
2021/03/10 06:24:33;;;;;;;61.45;26.88;;;;;;;-142.13;100.00;58370.81;4983912;28;20478;-69
2021/03/10 06:27:00;;;;;;;58.65;28.02;;;;;;;-142.13;100.00;58370.81;4987152;28;20271;-70
2021/03/10 06:29:27;;;;;;;68.90;27.63;;;;;;;-142.13;100.00;58370.81;4992828;28;20255;-68
2021/03/10 06:32:07;;;;;;;55.75;26.35;;;;;;;-142.13;100.00;58370.81;4979972;28;20229;-71
2021/03/10 06:34:43;;;;;;;57.97;26.02;;;;;;;-142.13;100.00;58370.81;4979261;28;20531;-70
2021/03/10 06:37:11;;;;;;;65.03;27.48;;;;;;;-142.13;100.00;58370.81;4991003;28;20607;-69
2021/03/10 06:40:08;;;;;;;61.28;28.02;;;;;;;-142.13;100.00;58370.81;4984242;28;20672;-70
2021/03/10 06:42:35;;;;;;;59.53;27.08;;;;;;;-142.13;100.00;58370.81;4976880;28;20696;-71
2021/03/10 06:45:04;;;;;;;63.35;27.48;;;;;;;-142.13;100.00;58370.81;4981084;28;20568;-69
2021/03/10 06:47:39;;;;;;;59.05;27.80;;;;;;;-142.13;100.00;58370.81;4985849;28;20368;-69
2021/03/10 06:50:10;;;;;;;66.05;28.70;;;;;;;-142.13;100.00;58370.81;4978746;28;20191;-69
2021/03/10 06:52:38;;;;;;;70.53;28.33;;;;;;;-142.13;100.00;58370.81;4987819;28;20222;-69
2021/03/10 06:55:07;;;;;;;62.58;26.35;;;;;;;-142.13;100.00;58370.81;4985798;28;20813;-69
2021/03/10 06:57:42;;;;;;;65.68;27.30;;;;;;;-142.13;100.00;58370.81;4975120;28;20213;-70
2021/03/10 07:00:20;;;;;;;57.30;26.33;;;;;;;-142.13;100.00;58370.81;4981204;28;20695;-70
2021/03/10 07:02:49;;;;;;;69.57;27.95;;;;;;;-142.13;100.00;58370.81;4980083;28;20771;-69
2021/03/10 07:05:18;;;;;;;59.00;28.10;;;;;;;-142.13;100.00;58370.81;4991670;28;20194;-70
2021/03/10 07:07:47;;;;;;;62.38;26.75;;;;;;;-142.13;100.00;58370.81;4967283;28;20256;-68
2021/03/10 07:10:24;;;;;;;59.20;27.00;;;;;;;-142.13;100.00;58370.81;4977884;28;20577;-69
2021/03/10 07:12:56;;;;;;;71.65;30.60;;;;;;;-142.13;100.00;58370.81;4986568;28;20223;-69
2021/03/10 07:15:23;;;;;;;62.70;26.08;;;;;;;-142.13;100.00;58370.81;4968357;28;20192;-69
2021/03/10 07:17:51;;;;;;;59.53;26.92;;;;;;;-142.13;100.00;58370.81;4977045;28;20229;-69
2021/03/10 07:20:19;;;;;;;68.70;28.63;;;;;;;-142.13;100.00;58370.81;4976863;28;20246;-69
2021/03/10 07:22:53;;;;;;;58.83;27.85;;;;;;;-142.13;100.00;58370.81;4976413;28;20748;-70
2021/03/10 07:25:32;;;;;;;68.90;28.75;;;;;;;-142.13;100.00;58370.81;4982401;28;20585;-71
2021/03/10 07:28:02;;;;;;;78.70;30.80;;;;;;;-142.13;100.00;58370.81;4993341;28;20224;-71
2021/03/10 07:30:37;;;;;;;65.63;30.23;;;;;;;-142.13;100.00;58370.81;4992585;28;20602;-71
2021/03/10 07:33:07;;;;;;;53.42;26.27;;;;;;;-142.13;100.00;58370.81;4993130;28;20678;-70
2021/03/10 07:35:49;;;;;;;57.55;26.27;;;;;;;-142.13;100.00;58370.81;4971962;28;20293;-71
2021/03/10 07:38:17;;;;;;;59.38;28.08;;;;;;;-142.13;100.00;58370.81;4997486;28;20692;-71
2021/03/10 07:41:01;;;;;;;55.25;27.20;;;;;;;-142.13;100.00;58370.81;4988449;28;20308;-72
2021/03/10 07:43:37;;;;;;;60.05;26.27;;;;;;;-142.13;100.00;58370.81;4987164;28;20229;-70
2021/03/10 07:46:16;;;;;;;52.92;26.10;;;;;;;-142.13;100.00;58370.81;4978408;28;20653;-71
2021/03/10 07:48:44;;;;;;;67.82;28.05;;;;;;;-142.13;100.00;58370.81;4983013;28;20895;-71
2021/03/10 07:51:23;;;;;;;56.40;28.58;;;;;;;-142.13;100.00;58370.81;4989079;28;20644;-71
2021/03/10 07:53:50;;;;;;;60.13;26.88;;;;;;;-142.13;100.00;58370.81;4994417;28;20550;-71
2021/03/10 07:56:25;;;;;;;61.35;27.45;;;;;;;-142.13;100.00;58370.81;4988245;28;20638;-71
2021/03/10 07:58:52;;;;;;;64.47;27.70;;;;;;;-142.13;100.00;58370.81;4994649;28;20611;-71
2021/03/10 08:01:19;;;;;;;57.30;26.80;;;;;;;-142.13;100.00;58370.81;4988802;28;20196;-71
2021/03/10 08:03:47;;;;;;;54.65;27.42;;;;;;;-142.13;100.00;58370.81;4993778;28;20236;-70
2021/03/10 08:06:15;;;;;;;57.75;26.77;;;;;;;-142.13;100.00;58370.81;4996271;28;20220;-72
2021/03/10 08:08:43;;;;;;;53.67;25.02;;;;;;;-142.13;100.00;58370.81;4994952;28;20684;-71
2021/03/10 08:11:13;;;;;;;117.40;48.40;;;;;;;-142.13;100.00;58370.81;4984676;28;20631;-71
2021/03/10 08:13:40;;;;;;;60.15;27.02;;;;;;;-142.13;100.00;58370.81;4992950;28;20638;-71
2021/03/10 08:16:09;;;;;;;58.00;26.25;;;;;;;-142.13;100.00;58370.81;4991854;28;20201;-72
2021/03/10 08:18:38;;;;;;;64.55;26.13;;;;;;;-142.13;100.00;58370.81;4969750;28;20648;-70
2021/03/10 08:21:10;;;;;;;59.42;24.17;;;;;;;-142.13;100.00;58370.81;4986580;28;20181;-71
2021/03/10 08:23:37;;;;;;;54.15;23.23;;;;;;;-142.13;100.00;58370.81;4977417;28;20721;-72
2021/03/10 08:26:05;;;;;;;51.20;23.58;;;;;;;-142.13;100.00;58370.81;4995892;28;20619;-71
2021/03/10 08:28:34;;;;;;;59.97;26.55;;;;;;;-142.13;100.00;58370.81;4994854;28;20247;-70
2021/03/10 08:31:02;;;;;;;50.45;24.42;;;;;;;-142.13;100.00;58370.81;4983391;28;20188;-71
2021/03/10 08:33:30;;;;;;;47.30;21.55;;;;;;;-142.13;100.00;58370.81;4989447;28;20244;-70
2021/03/10 08:35:58;;;;;;;54.95;23.65;;;;;;;-142.13;100.00;58370.81;4994335;28;20181;-72
2021/03/10 08:38:32;;;;;;;52.65;23.27;;;;;;;-142.13;100.00;58370.81;4986660;28;20715;-71
2021/03/10 08:41:07;;;;;;;56.08;25.42;;;;;;;-142.13;100.00;58370.81;4992305;28;20776;-71
2021/03/10 08:43:34;;;;;;;52.40;23.70;;;;;;;-142.13;100.00;58370.81;4978887;28;20564;-71
2021/03/10 08:46:02;;;;;;;45.50;22.88;;;;;;;-142.13;100.00;58370.81;4993682;28;20192;-72
2021/03/10 08:48:32;;;;;;;49.85;21.92;;;;;;;-142.13;100.00;58370.81;4979274;28;20553;-71
2021/03/10 08:51:01;;;;;;;52.55;24.15;;;;;;;-142.13;100.00;58370.81;4993767;28;20566;-71
2021/03/10 08:53:30;;;;;;;51.25;25.20;;;;;;;-142.13;100.00;58370.81;4987098;28;20906;-72
2021/03/10 08:56:05;;;;;;;55.22;24.77;;;;;;;-142.13;100.00;58370.81;4986115;28;20701;-72
2021/03/10 08:58:32;;;;;;;51.63;24.08;;;;;;;-142.13;100.00;58370.81;4984681;28;20217;-72
2021/03/10 09:01:12;;;;;;;60.20;25.98;;;;;;;-142.13;100.00;58370.81;4987684;28;20545;-71
2021/03/10 09:03:43;;;;;;;47.72;21.25;;;;;;;-142.13;100.00;58370.81;4980799;28;20233;-71
2021/03/10 09:06:10;;;;;;;43.60;20.70;;;;;;;-142.13;100.00;58370.81;4982300;28;20279;-71
2021/03/10 09:08:41;;;;;;;46.45;22.55;;;;;;;-142.13;100.00;58370.81;4991223;28;20240;-71
2021/03/10 09:11:08;;;;;;;45.80;22.52;;;;;;;-142.13;100.00;58370.81;4983438;28;20625;-71
2021/03/10 09:13:35;;;;;;;41.92;19.75;;;;;;;-142.13;100.00;58370.81;4986896;28;20630;-72
2021/03/10 09:16:09;;;;;;;46.15;22.20;;;;;;;-142.13;100.00;58370.81;4978204;28;20193;-72
2021/03/10 09:18:36;;;;;;;47.78;23.33;;;;;;;-142.13;100.00;58370.81;4982062;28;20789;-71
2021/03/10 09:21:04;;;;;;;82.47;37.13;;;;;;;-142.13;100.00;58370.81;4994378;28;20274;-71
2021/03/10 09:23:32;;;;;;;54.50;24.88;;;;;;;-142.13;100.00;58370.81;4965674;28;20702;-71
2021/03/10 09:25:59;;;;;;;45.85;19.98;;;;;;;-142.13;100.00;58370.81;4979390;28;20192;-72
2021/03/10 09:28:36;;;;;;;49.20;20.60;;;;;;;-142.13;100.00;58370.81;4988082;28;20551;-72
2021/03/10 09:31:12;;;;;;;40.08;18.92;;;;;;;-142.13;100.00;58370.81;4993457;28;20708;-71
2021/03/10 09:33:40;;;;;;;33.75;16.45;;;;;;;-142.13;100.00;58370.81;4987822;28;20219;-71
2021/03/10 09:36:08;;;;;;;41.85;21.00;;;;;;;-142.13;100.00;58370.81;4986472;28;20491;-70
2021/03/10 09:38:36;;;;;;;41.45;17.50;;;;;;;-142.13;100.00;58370.81;4987905;28;20229;-70
2021/03/10 09:41:05;;;;;;;34.33;16.02;;;;;;;-142.13;100.00;58370.81;4979995;28;20615;-73
2021/03/10 09:43:34;;;;;;;33.22;15.88;;;;;;;-142.13;100.00;58370.81;4987904;28;20217;-70
2021/03/10 09:46:03;;;;;;;31.38;14.52;;;;;;;-142.13;100.00;58370.81;4980435;28;20208;-71
2021/03/10 09:48:32;;;;;;;29.13;14.50;;;;;;;-142.13;100.00;58370.81;4978294;28;20536;-70
2021/03/10 09:51:06;;;;;;;28.40;13.27;;;;;;;-142.13;100.00;58370.81;4994103;28;20437;-71
2021/03/10 09:53:33;;;;;;;20.27;11.18;;;;;;;-142.13;100.00;58370.81;4970118;28;20757;-72
2021/03/10 09:56:06;;;;;;;26.23;11.90;;;;;;;-142.13;100.00;58370.81;4986739;28;20185;-70
2021/03/10 09:58:33;;;;;;;23.25;12.10;;;;;;;-142.13;100.00;58370.81;4982506;28;20808;-71
2021/03/10 10:01:01;;;;;;;21.95;11.73;;;;;;;-142.13;100.00;58370.81;4993391;28;20618;-70
2021/03/10 10:03:28;;;;;;;18.83;9.70;;;;;;;-142.13;100.00;58370.81;4987073;28;20800;-70
2021/03/10 10:06:04;;;;;;;24.00;10.23;;;;;;;-142.13;100.00;58370.81;4981300;28;20525;-70
2021/03/10 10:08:31;;;;;;;24.30;10.90;;;;;;;-142.13;100.00;58370.81;4968907;28;20972;-71
2021/03/10 10:10:59;;;;;;;24.07;11.67;;;;;;;-142.13;100.00;58370.81;4978794;28;20789;-69
2021/03/10 10:13:43;;;;;;;23.00;11.30;;;;;;;-142.13;100.00;58370.81;4986153;28;20926;-71
2021/03/10 10:16:15;;;;;;;21.23;10.27;;;;;;;-142.13;100.00;58370.81;4982830;28;20884;-71
2021/03/10 10:18:43;;;;;;;15.70;7.30;;;;;;;-142.13;100.00;58370.81;4988822;28;20991;-71
2021/03/10 10:21:10;;;;;;;19.00;7.50;;;;;;;-142.13;100.00;58370.81;4974988;28;20820;-71
2021/03/10 10:23:37;;;;;;;17.97;8.60;;;;;;;-142.13;100.00;58370.81;4979466;28;20847;-70
2021/03/10 10:26:04;;;;;;;16.33;7.57;;;;;;;-142.13;100.00;58370.81;4978332;28;20922;-70
2021/03/10 10:28:31;;;;;;;18.40;6.90;;;;;;;-142.13;100.00;58370.81;4978263;28;20478;-70
2021/03/10 10:31:00;;;;;;;13.70;6.30;;;;;;;-142.13;100.00;58370.81;4986092;28;20944;-70
2021/03/10 10:33:29;;;;;;;17.07;7.07;;;;;;;-142.13;100.00;58370.81;4988356;28;20499;-71
2021/03/10 10:35:56;;;;;;;15.60;7.50;;;;;;;-142.13;100.00;58370.81;4986917;28;20432;-70
2021/03/10 10:38:24;;;;;;;12.57;6.00;;;;;;;-142.13;100.00;58370.81;4992469;28;21028;-69
2021/03/10 10:40:51;;;;;;;10.87;5.00;;;;;;;-142.13;100.00;58370.81;4993147;28;20775;-70
2021/03/10 10:43:18;;;;;;;9.40;4.63;;;;;;;-142.13;100.00;58370.81;4991667;28;20530;-70
2021/03/10 10:45:45;;;;;;;12.30;6.50;;;;;;;-142.13;100.00;58370.81;4991605;28;21002;-70
2021/03/10 10:48:13;;;;;;;11.70;6.20;;;;;;;-142.13;100.00;58370.81;4987770;28;20503;-70
2021/03/10 10:50:40;;;;;;;15.23;6.68;;;;;;;-142.13;100.00;58370.81;4994161;28;20828;-70
2021/03/10 10:53:07;;;;;;;11.03;5.40;;;;;;;-142.13;100.00;58370.81;4977126;28;20623;-70
2021/03/10 10:55:34;;;;;;;14.00;5.67;;;;;;;-142.13;100.00;58370.81;4983497;28;21136;-73
2021/03/10 10:58:05;;;;;;;9.93;4.90;;;;;;;-142.13;100.00;58370.81;4993026;28;21159;-73
2021/03/10 11:00:35;;;;;;;10.70;4.67;;;;;;;-142.13;100.00;58370.81;4994939;28;21087;-73
2021/03/10 11:03:02;;;;;;;7.50;4.33;;;;;;;-142.13;100.00;58370.81;4995647;28;20953;-72